<?xml version="1.0" encoding="UTF-8" standalone="no" ?>
<gpx xmlns="http://www.topografix.com/GPX/1/1" xmlns:xsi="http://www.w3.org/2001/XMLSchema-instance" xsi:schemaLocation="http://www.topografix.com/GPX/1/1 http://www.topografix.com/GPX/1/1/gpx.xsd" version="1.1" creator="VisuGPX - https://www.visugpx.com">
  <metadata>
    <name>Sortie Moto</name>
  </metadata>
  <trk>
    <name><![CDATA[Journal actif: 2020-04-18 12:40]]></name>
    <trkseg>
      <trkpt lat="46.06782" lon="6.30779">
        <ele>562.51</ele>
        <time>2020-04-18T10:40:22Z</time>
      </trkpt>
      <trkpt lat="46.06795" lon="6.30769">
        <ele>560.11</ele>
        <time>2020-04-18T10:40:25Z</time>
      </trkpt>
      <trkpt lat="46.06797" lon="6.30768">
        <ele>559.62</ele>
        <time>2020-04-18T10:40:27Z</time>
      </trkpt>
      <trkpt lat="46.06801" lon="6.30774">
        <ele>558.66</ele>
        <time>2020-04-18T10:40:29Z</time>
      </trkpt>
      <trkpt lat="46.06802" lon="6.30779">
        <ele>558.18</ele>
        <time>2020-04-18T10:40:30Z</time>
      </trkpt>
      <trkpt lat="46.06803" lon="6.30787">
        <ele>557.7</ele>
        <time>2020-04-18T10:40:31Z</time>
      </trkpt>
      <trkpt lat="46.06805" lon="6.30799">
        <ele>556.74</ele>
        <time>2020-04-18T10:40:32Z</time>
      </trkpt>
      <trkpt lat="46.06808" lon="6.30812">
        <ele>556.74</ele>
        <time>2020-04-18T10:40:33Z</time>
      </trkpt>
      <trkpt lat="46.06811" lon="6.30829">
        <ele>555.3</ele>
        <time>2020-04-18T10:40:34Z</time>
      </trkpt>
      <trkpt lat="46.06812" lon="6.30836">
        <ele>554.82</ele>
        <time>2020-04-18T10:40:35Z</time>
      </trkpt>
      <trkpt lat="46.06812" lon="6.30879">
        <ele>551.45</ele>
        <time>2020-04-18T10:40:38Z</time>
      </trkpt>
      <trkpt lat="46.06812" lon="6.30886">
        <ele>550.97</ele>
        <time>2020-04-18T10:40:39Z</time>
      </trkpt>
      <trkpt lat="46.06812" lon="6.30891">
        <ele>550.49</ele>
        <time>2020-04-18T10:40:40Z</time>
      </trkpt>
      <trkpt lat="46.06831" lon="6.30904">
        <ele>549.05</ele>
        <time>2020-04-18T10:40:41Z</time>
      </trkpt>
      <trkpt lat="46.06832" lon="6.30902">
        <ele>548.09</ele>
        <time>2020-04-18T10:40:42Z</time>
      </trkpt>
      <trkpt lat="46.06834" lon="6.309">
        <ele>546.65</ele>
        <time>2020-04-18T10:40:43Z</time>
      </trkpt>
      <trkpt lat="46.06838" lon="6.30894">
        <ele>545.69</ele>
        <time>2020-04-18T10:40:44Z</time>
      </trkpt>
      <trkpt lat="46.06844" lon="6.30887">
        <ele>544.24</ele>
        <time>2020-04-18T10:40:45Z</time>
      </trkpt>
      <trkpt lat="46.06852" lon="6.30876">
        <ele>543.76</ele>
        <time>2020-04-18T10:40:46Z</time>
      </trkpt>
      <trkpt lat="46.06861" lon="6.30864">
        <ele>542.8</ele>
        <time>2020-04-18T10:40:47Z</time>
      </trkpt>
      <trkpt lat="46.06872" lon="6.30851">
        <ele>541.84</ele>
        <time>2020-04-18T10:40:48Z</time>
      </trkpt>
      <trkpt lat="46.06922" lon="6.30784">
        <ele>539.92</ele>
        <time>2020-04-18T10:40:53Z</time>
      </trkpt>
      <trkpt lat="46.06929" lon="6.3077">
        <ele>540.4</ele>
        <time>2020-04-18T10:40:54Z</time>
      </trkpt>
      <trkpt lat="46.06937" lon="6.30755">
        <ele>544.72</ele>
        <time>2020-04-18T10:40:55Z</time>
      </trkpt>
      <trkpt lat="46.06943" lon="6.30739">
        <ele>546.17</ele>
        <time>2020-04-18T10:40:56Z</time>
      </trkpt>
      <trkpt lat="46.06949" lon="6.30723">
        <ele>547.61</ele>
        <time>2020-04-18T10:40:57Z</time>
      </trkpt>
      <trkpt lat="46.06959" lon="6.3069">
        <ele>549.05</ele>
        <time>2020-04-18T10:40:59Z</time>
      </trkpt>
      <trkpt lat="46.06963" lon="6.30672">
        <ele>550.01</ele>
        <time>2020-04-18T10:41:00Z</time>
      </trkpt>
      <trkpt lat="46.06966" lon="6.30654">
        <ele>550.97</ele>
        <time>2020-04-18T10:41:01Z</time>
      </trkpt>
      <trkpt lat="46.06999" lon="6.3054">
        <ele>559.14</ele>
        <time>2020-04-18T10:41:09Z</time>
      </trkpt>
      <trkpt lat="46.07004" lon="6.30529">
        <ele>560.59</ele>
        <time>2020-04-18T10:41:10Z</time>
      </trkpt>
      <trkpt lat="46.07015" lon="6.3052">
        <ele>562.03</ele>
        <time>2020-04-18T10:41:11Z</time>
      </trkpt>
      <trkpt lat="46.07067" lon="6.30484">
        <ele>569.72</ele>
        <time>2020-04-18T10:41:17Z</time>
      </trkpt>
      <trkpt lat="46.07075" lon="6.30478">
        <ele>570.68</ele>
        <time>2020-04-18T10:41:18Z</time>
      </trkpt>
      <trkpt lat="46.07101" lon="6.30465">
        <ele>568.76</ele>
        <time>2020-04-18T10:41:20Z</time>
      </trkpt>
      <trkpt lat="46.07115" lon="6.30459">
        <ele>568.28</ele>
        <time>2020-04-18T10:41:21Z</time>
      </trkpt>
      <trkpt lat="46.07222" lon="6.30413">
        <ele>566.83</ele>
        <time>2020-04-18T10:41:30Z</time>
      </trkpt>
      <trkpt lat="46.07229" lon="6.3041">
        <ele>566.35</ele>
        <time>2020-04-18T10:41:31Z</time>
      </trkpt>
      <trkpt lat="46.07235" lon="6.30408">
        <ele>565.39</ele>
        <time>2020-04-18T10:41:32Z</time>
      </trkpt>
      <trkpt lat="46.07246" lon="6.30413">
        <ele>565.39</ele>
        <time>2020-04-18T10:41:33Z</time>
      </trkpt>
      <trkpt lat="46.0725" lon="6.30423">
        <ele>565.39</ele>
        <time>2020-04-18T10:41:34Z</time>
      </trkpt>
      <trkpt lat="46.07253" lon="6.30434">
        <ele>564.43</ele>
        <time>2020-04-18T10:41:35Z</time>
      </trkpt>
      <trkpt lat="46.07257" lon="6.30445">
        <ele>563.95</ele>
        <time>2020-04-18T10:41:36Z</time>
      </trkpt>
      <trkpt lat="46.0726" lon="6.30453">
        <ele>563.47</ele>
        <time>2020-04-18T10:41:37Z</time>
      </trkpt>
      <trkpt lat="46.07262" lon="6.30459">
        <ele>563.47</ele>
        <time>2020-04-18T10:41:38Z</time>
      </trkpt>
      <trkpt lat="46.07265" lon="6.30467">
        <ele>562.51</ele>
        <time>2020-04-18T10:41:39Z</time>
      </trkpt>
      <trkpt lat="46.07267" lon="6.30466">
        <ele>561.55</ele>
        <time>2020-04-18T10:41:40Z</time>
      </trkpt>
      <trkpt lat="46.07275" lon="6.30461">
        <ele>561.07</ele>
        <time>2020-04-18T10:41:41Z</time>
      </trkpt>
      <trkpt lat="46.07285" lon="6.30454">
        <ele>560.59</ele>
        <time>2020-04-18T10:41:42Z</time>
      </trkpt>
      <trkpt lat="46.07297" lon="6.30446">
        <ele>560.11</ele>
        <time>2020-04-18T10:41:43Z</time>
      </trkpt>
      <trkpt lat="46.07374" lon="6.30408">
        <ele>558.66</ele>
        <time>2020-04-18T10:41:48Z</time>
      </trkpt>
      <trkpt lat="46.074" lon="6.30401">
        <ele>557.7</ele>
        <time>2020-04-18T10:41:50Z</time>
      </trkpt>
      <trkpt lat="46.07538" lon="6.304">
        <ele>550.49</ele>
        <time>2020-04-18T10:42:01Z</time>
      </trkpt>
      <trkpt lat="46.0757" lon="6.30406">
        <ele>549.53</ele>
        <time>2020-04-18T10:42:04Z</time>
      </trkpt>
      <trkpt lat="46.07576" lon="6.30409">
        <ele>549.05</ele>
        <time>2020-04-18T10:42:05Z</time>
      </trkpt>
      <trkpt lat="46.07584" lon="6.30418">
        <ele>548.57</ele>
        <time>2020-04-18T10:42:06Z</time>
      </trkpt>
      <trkpt lat="46.07591" lon="6.30422">
        <ele>548.57</ele>
        <time>2020-04-18T10:42:07Z</time>
      </trkpt>
      <trkpt lat="46.076" lon="6.30431">
        <ele>547.61</ele>
        <time>2020-04-18T10:42:08Z</time>
      </trkpt>
      <trkpt lat="46.07601" lon="6.30438">
        <ele>547.13</ele>
        <time>2020-04-18T10:42:09Z</time>
      </trkpt>
      <trkpt lat="46.07603" lon="6.3045">
        <ele>546.65</ele>
        <time>2020-04-18T10:42:10Z</time>
      </trkpt>
      <trkpt lat="46.07596" lon="6.30468">
        <ele>545.69</ele>
        <time>2020-04-18T10:42:11Z</time>
      </trkpt>
      <trkpt lat="46.07589" lon="6.30482">
        <ele>545.2</ele>
        <time>2020-04-18T10:42:12Z</time>
      </trkpt>
      <trkpt lat="46.0758" lon="6.30501">
        <ele>544.72</ele>
        <time>2020-04-18T10:42:13Z</time>
      </trkpt>
      <trkpt lat="46.0754" lon="6.30597">
        <ele>542.8</ele>
        <time>2020-04-18T10:42:16Z</time>
      </trkpt>
      <trkpt lat="46.07493" lon="6.30767">
        <ele>539.92</ele>
        <time>2020-04-18T10:42:21Z</time>
      </trkpt>
      <trkpt lat="46.07476" lon="6.30928">
        <ele>535.59</ele>
        <time>2020-04-18T10:42:27Z</time>
      </trkpt>
      <trkpt lat="46.07462" lon="6.31155">
        <ele>525.02</ele>
        <time>2020-04-18T10:42:37Z</time>
      </trkpt>
      <trkpt lat="46.07432" lon="6.31286">
        <ele>518.29</ele>
        <time>2020-04-18T10:42:45Z</time>
      </trkpt>
      <trkpt lat="46.07423" lon="6.31308">
        <ele>517.81</ele>
        <time>2020-04-18T10:42:47Z</time>
      </trkpt>
      <trkpt lat="46.07418" lon="6.31319">
        <ele>517.33</ele>
        <time>2020-04-18T10:42:48Z</time>
      </trkpt>
      <trkpt lat="46.07414" lon="6.3133">
        <ele>517.33</ele>
        <time>2020-04-18T10:42:49Z</time>
      </trkpt>
      <trkpt lat="46.07398" lon="6.31347">
        <ele>517.33</ele>
        <time>2020-04-18T10:42:51Z</time>
      </trkpt>
      <trkpt lat="46.07395" lon="6.3136">
        <ele>517.81</ele>
        <time>2020-04-18T10:42:52Z</time>
      </trkpt>
      <trkpt lat="46.07396" lon="6.31374">
        <ele>517.81</ele>
        <time>2020-04-18T10:42:53Z</time>
      </trkpt>
      <trkpt lat="46.07397" lon="6.31404">
        <ele>517.81</ele>
        <time>2020-04-18T10:42:55Z</time>
      </trkpt>
      <trkpt lat="46.07391" lon="6.31418">
        <ele>517.33</ele>
        <time>2020-04-18T10:42:56Z</time>
      </trkpt>
      <trkpt lat="46.07385" lon="6.31435">
        <ele>516.85</ele>
        <time>2020-04-18T10:42:57Z</time>
      </trkpt>
      <trkpt lat="46.07378" lon="6.31455">
        <ele>516.37</ele>
        <time>2020-04-18T10:42:58Z</time>
      </trkpt>
      <trkpt lat="46.07363" lon="6.31471">
        <ele>516.37</ele>
        <time>2020-04-18T10:42:59Z</time>
      </trkpt>
      <trkpt lat="46.07346" lon="6.31491">
        <ele>515.4</ele>
        <time>2020-04-18T10:43:00Z</time>
      </trkpt>
      <trkpt lat="46.07253" lon="6.31617">
        <ele>513.48</ele>
        <time>2020-04-18T10:43:06Z</time>
      </trkpt>
      <trkpt lat="46.07167" lon="6.31746">
        <ele>513.96</ele>
        <time>2020-04-18T10:43:13Z</time>
      </trkpt>
      <trkpt lat="46.07079" lon="6.31917">
        <ele>513.96</ele>
        <time>2020-04-18T10:43:21Z</time>
      </trkpt>
      <trkpt lat="46.07034" lon="6.32048">
        <ele>513.48</ele>
        <time>2020-04-18T10:43:26Z</time>
      </trkpt>
      <trkpt lat="46.07029" lon="6.32083">
        <ele>513</ele>
        <time>2020-04-18T10:43:27Z</time>
      </trkpt>
      <trkpt lat="46.07027" lon="6.32121">
        <ele>513</ele>
        <time>2020-04-18T10:43:28Z</time>
      </trkpt>
      <trkpt lat="46.07025" lon="6.32159">
        <ele>512.52</ele>
        <time>2020-04-18T10:43:29Z</time>
      </trkpt>
      <trkpt lat="46.07026" lon="6.32195">
        <ele>512.04</ele>
        <time>2020-04-18T10:43:30Z</time>
      </trkpt>
      <trkpt lat="46.07031" lon="6.3223">
        <ele>511.56</ele>
        <time>2020-04-18T10:43:31Z</time>
      </trkpt>
      <trkpt lat="46.07037" lon="6.32263">
        <ele>511.08</ele>
        <time>2020-04-18T10:43:32Z</time>
      </trkpt>
      <trkpt lat="46.07044" lon="6.32294">
        <ele>510.6</ele>
        <time>2020-04-18T10:43:33Z</time>
      </trkpt>
      <trkpt lat="46.07092" lon="6.32511">
        <ele>503.39</ele>
        <time>2020-04-18T10:43:41Z</time>
      </trkpt>
      <trkpt lat="46.07111" lon="6.32687">
        <ele>496.66</ele>
        <time>2020-04-18T10:43:49Z</time>
      </trkpt>
      <trkpt lat="46.07113" lon="6.32723">
        <ele>495.22</ele>
        <time>2020-04-18T10:43:51Z</time>
      </trkpt>
      <trkpt lat="46.07114" lon="6.32737">
        <ele>494.26</ele>
        <time>2020-04-18T10:43:52Z</time>
      </trkpt>
      <trkpt lat="46.07108" lon="6.3276">
        <ele>493.29</ele>
        <time>2020-04-18T10:43:54Z</time>
      </trkpt>
      <trkpt lat="46.0711" lon="6.3277">
        <ele>492.81</ele>
        <time>2020-04-18T10:43:55Z</time>
      </trkpt>
      <trkpt lat="46.07113" lon="6.32777">
        <ele>492.33</ele>
        <time>2020-04-18T10:43:56Z</time>
      </trkpt>
      <trkpt lat="46.07121" lon="6.32782">
        <ele>491.85</ele>
        <time>2020-04-18T10:43:57Z</time>
      </trkpt>
      <trkpt lat="46.07129" lon="6.3278">
        <ele>491.37</ele>
        <time>2020-04-18T10:43:58Z</time>
      </trkpt>
      <trkpt lat="46.07136" lon="6.32776">
        <ele>491.37</ele>
        <time>2020-04-18T10:43:59Z</time>
      </trkpt>
      <trkpt lat="46.07141" lon="6.32759">
        <ele>490.89</ele>
        <time>2020-04-18T10:44:00Z</time>
      </trkpt>
      <trkpt lat="46.07161" lon="6.32744">
        <ele>489.93</ele>
        <time>2020-04-18T10:44:02Z</time>
      </trkpt>
      <trkpt lat="46.07171" lon="6.32733">
        <ele>489.45</ele>
        <time>2020-04-18T10:44:03Z</time>
      </trkpt>
      <trkpt lat="46.07181" lon="6.32718">
        <ele>488.49</ele>
        <time>2020-04-18T10:44:04Z</time>
      </trkpt>
      <trkpt lat="46.07222" lon="6.32656">
        <ele>484.64</ele>
        <time>2020-04-18T10:44:09Z</time>
      </trkpt>
      <trkpt lat="46.07226" lon="6.32649">
        <ele>484.16</ele>
        <time>2020-04-18T10:44:10Z</time>
      </trkpt>
      <trkpt lat="46.07235" lon="6.32646">
        <ele>483.68</ele>
        <time>2020-04-18T10:44:11Z</time>
      </trkpt>
      <trkpt lat="46.07234" lon="6.32639">
        <ele>483.2</ele>
        <time>2020-04-18T10:44:12Z</time>
      </trkpt>
      <trkpt lat="46.07233" lon="6.32633">
        <ele>483.2</ele>
        <time>2020-04-18T10:44:13Z</time>
      </trkpt>
      <trkpt lat="46.07224" lon="6.32634">
        <ele>482.72</ele>
        <time>2020-04-18T10:44:14Z</time>
      </trkpt>
      <trkpt lat="46.07219" lon="6.32627">
        <ele>482.24</ele>
        <time>2020-04-18T10:44:15Z</time>
      </trkpt>
      <trkpt lat="46.07216" lon="6.32621">
        <ele>482.24</ele>
        <time>2020-04-18T10:44:16Z</time>
      </trkpt>
      <trkpt lat="46.07213" lon="6.32617">
        <ele>481.76</ele>
        <time>2020-04-18T10:44:17Z</time>
      </trkpt>
      <trkpt lat="46.07208" lon="6.32623">
        <ele>481.76</ele>
        <time>2020-04-18T10:44:18Z</time>
      </trkpt>
      <trkpt lat="46.07208" lon="6.3263">
        <ele>481.76</ele>
        <time>2020-04-18T10:44:19Z</time>
      </trkpt>
      <trkpt lat="46.07204" lon="6.32648">
        <ele>481.76</ele>
        <time>2020-04-18T10:44:20Z</time>
      </trkpt>
      <trkpt lat="46.07197" lon="6.3266">
        <ele>481.76</ele>
        <time>2020-04-18T10:44:21Z</time>
      </trkpt>
      <trkpt lat="46.07191" lon="6.32671">
        <ele>481.76</ele>
        <time>2020-04-18T10:44:22Z</time>
      </trkpt>
      <trkpt lat="46.07185" lon="6.32682">
        <ele>483.2</ele>
        <time>2020-04-18T10:44:23Z</time>
      </trkpt>
      <trkpt lat="46.07177" lon="6.32694">
        <ele>485.12</ele>
        <time>2020-04-18T10:44:24Z</time>
      </trkpt>
      <trkpt lat="46.07169" lon="6.32701">
        <ele>487.53</ele>
        <time>2020-04-18T10:44:25Z</time>
      </trkpt>
      <trkpt lat="46.07163" lon="6.32707">
        <ele>489.45</ele>
        <time>2020-04-18T10:44:26Z</time>
      </trkpt>
      <trkpt lat="46.07151" lon="6.32709">
        <ele>490.89</ele>
        <time>2020-04-18T10:44:27Z</time>
      </trkpt>
      <trkpt lat="46.07145" lon="6.32704">
        <ele>492.33</ele>
        <time>2020-04-18T10:44:28Z</time>
      </trkpt>
      <trkpt lat="46.07141" lon="6.32699">
        <ele>493.77</ele>
        <time>2020-04-18T10:44:29Z</time>
      </trkpt>
      <trkpt lat="46.07138" lon="6.32696">
        <ele>494.74</ele>
        <time>2020-04-18T10:44:30Z</time>
      </trkpt>
      <trkpt lat="46.07134" lon="6.32692">
        <ele>495.7</ele>
        <time>2020-04-18T10:44:31Z</time>
      </trkpt>
      <trkpt lat="46.07134" lon="6.32692">
        <ele>497.14</ele>
        <time>2020-04-18T10:44:32Z</time>
      </trkpt>
      <trkpt lat="46.07134" lon="6.32692">
        <ele>498.1</ele>
        <time>2020-04-18T10:44:33Z</time>
      </trkpt>
      <trkpt lat="46.07134" lon="6.32692">
        <ele>500.02</ele>
        <time>2020-04-18T10:44:35Z</time>
      </trkpt>
      <trkpt lat="46.07133" lon="6.3273">
        <ele>500.98</ele>
        <time>2020-04-18T10:44:36Z</time>
      </trkpt>
      <trkpt lat="46.07144" lon="6.32758">
        <ele>502.43</ele>
        <time>2020-04-18T10:44:38Z</time>
      </trkpt>
      <trkpt lat="46.07147" lon="6.32757">
        <ele>503.87</ele>
        <time>2020-04-18T10:44:45Z</time>
      </trkpt>
      <trkpt lat="46.07151" lon="6.32562">
        <ele>475.99</ele>
        <time>2020-04-18T11:07:56Z</time>
      </trkpt>
      <trkpt lat="46.07159" lon="6.32551">
        <ele>502.43</ele>
        <time>2020-04-18T11:08:14Z</time>
      </trkpt>
      <trkpt lat="46.07159" lon="6.32547">
        <ele>501.95</ele>
        <time>2020-04-18T11:08:18Z</time>
      </trkpt>
      <trkpt lat="46.07162" lon="6.3254">
        <ele>501.95</ele>
        <time>2020-04-18T11:08:19Z</time>
      </trkpt>
      <trkpt lat="46.07172" lon="6.32515">
        <ele>501.46</ele>
        <time>2020-04-18T11:08:22Z</time>
      </trkpt>
      <trkpt lat="46.07174" lon="6.3251">
        <ele>501.46</ele>
        <time>2020-04-18T11:08:23Z</time>
      </trkpt>
      <trkpt lat="46.0719" lon="6.32527">
        <ele>500.98</ele>
        <time>2020-04-18T11:08:24Z</time>
      </trkpt>
      <trkpt lat="46.07186" lon="6.32513">
        <ele>500.5</ele>
        <time>2020-04-18T11:08:25Z</time>
      </trkpt>
      <trkpt lat="46.07187" lon="6.32516">
        <ele>500.5</ele>
        <time>2020-04-18T11:08:26Z</time>
      </trkpt>
      <trkpt lat="46.07189" lon="6.32522">
        <ele>500.5</ele>
        <time>2020-04-18T11:08:27Z</time>
      </trkpt>
      <trkpt lat="46.0719" lon="6.32533">
        <ele>500.02</ele>
        <time>2020-04-18T11:08:28Z</time>
      </trkpt>
      <trkpt lat="46.07192" lon="6.32549">
        <ele>500.02</ele>
        <time>2020-04-18T11:08:29Z</time>
      </trkpt>
      <trkpt lat="46.07194" lon="6.32566">
        <ele>500.02</ele>
        <time>2020-04-18T11:08:30Z</time>
      </trkpt>
      <trkpt lat="46.07196" lon="6.32581">
        <ele>499.54</ele>
        <time>2020-04-18T11:08:31Z</time>
      </trkpt>
      <trkpt lat="46.07201" lon="6.32592">
        <ele>499.06</ele>
        <time>2020-04-18T11:08:32Z</time>
      </trkpt>
      <trkpt lat="46.07205" lon="6.32602">
        <ele>498.58</ele>
        <time>2020-04-18T11:08:33Z</time>
      </trkpt>
      <trkpt lat="46.07209" lon="6.32611">
        <ele>497.62</ele>
        <time>2020-04-18T11:08:34Z</time>
      </trkpt>
      <trkpt lat="46.07214" lon="6.32619">
        <ele>497.62</ele>
        <time>2020-04-18T11:08:35Z</time>
      </trkpt>
      <trkpt lat="46.07219" lon="6.32626">
        <ele>497.14</ele>
        <time>2020-04-18T11:08:36Z</time>
      </trkpt>
      <trkpt lat="46.07225" lon="6.32639">
        <ele>496.18</ele>
        <time>2020-04-18T11:08:37Z</time>
      </trkpt>
      <trkpt lat="46.0722" lon="6.32658">
        <ele>495.7</ele>
        <time>2020-04-18T11:08:38Z</time>
      </trkpt>
      <trkpt lat="46.07215" lon="6.32666">
        <ele>495.7</ele>
        <time>2020-04-18T11:08:39Z</time>
      </trkpt>
      <trkpt lat="46.07207" lon="6.32677">
        <ele>495.22</ele>
        <time>2020-04-18T11:08:40Z</time>
      </trkpt>
      <trkpt lat="46.07198" lon="6.32692">
        <ele>495.22</ele>
        <time>2020-04-18T11:08:41Z</time>
      </trkpt>
      <trkpt lat="46.07188" lon="6.32707">
        <ele>495.22</ele>
        <time>2020-04-18T11:08:42Z</time>
      </trkpt>
      <trkpt lat="46.0717" lon="6.32734">
        <ele>495.7</ele>
        <time>2020-04-18T11:08:44Z</time>
      </trkpt>
      <trkpt lat="46.07162" lon="6.32743">
        <ele>495.7</ele>
        <time>2020-04-18T11:08:45Z</time>
      </trkpt>
      <trkpt lat="46.07155" lon="6.3275">
        <ele>495.7</ele>
        <time>2020-04-18T11:08:46Z</time>
      </trkpt>
      <trkpt lat="46.07147" lon="6.32757">
        <ele>496.18</ele>
        <time>2020-04-18T11:08:47Z</time>
      </trkpt>
      <trkpt lat="46.07136" lon="6.3275">
        <ele>496.66</ele>
        <time>2020-04-18T11:08:48Z</time>
      </trkpt>
      <trkpt lat="46.07133" lon="6.32748">
        <ele>496.66</ele>
        <time>2020-04-18T11:08:49Z</time>
      </trkpt>
      <trkpt lat="46.07125" lon="6.32742">
        <ele>497.14</ele>
        <time>2020-04-18T11:08:50Z</time>
      </trkpt>
      <trkpt lat="46.07119" lon="6.32743">
        <ele>497.14</ele>
        <time>2020-04-18T11:08:51Z</time>
      </trkpt>
      <trkpt lat="46.07112" lon="6.32747">
        <ele>497.14</ele>
        <time>2020-04-18T11:08:52Z</time>
      </trkpt>
      <trkpt lat="46.07108" lon="6.3276">
        <ele>497.14</ele>
        <time>2020-04-18T11:08:53Z</time>
      </trkpt>
      <trkpt lat="46.0711" lon="6.3277">
        <ele>497.14</ele>
        <time>2020-04-18T11:08:54Z</time>
      </trkpt>
      <trkpt lat="46.07115" lon="6.3278">
        <ele>497.14</ele>
        <time>2020-04-18T11:08:55Z</time>
      </trkpt>
      <trkpt lat="46.07123" lon="6.32797">
        <ele>496.66</ele>
        <time>2020-04-18T11:08:56Z</time>
      </trkpt>
      <trkpt lat="46.07124" lon="6.32816">
        <ele>496.18</ele>
        <time>2020-04-18T11:08:57Z</time>
      </trkpt>
      <trkpt lat="46.07126" lon="6.32838">
        <ele>495.7</ele>
        <time>2020-04-18T11:08:58Z</time>
      </trkpt>
      <trkpt lat="46.07128" lon="6.32864">
        <ele>495.22</ele>
        <time>2020-04-18T11:08:59Z</time>
      </trkpt>
      <trkpt lat="46.07144" lon="6.33099">
        <ele>485.6</ele>
        <time>2020-04-18T11:09:07Z</time>
      </trkpt>
      <trkpt lat="46.07139" lon="6.33156">
        <ele>483.2</ele>
        <time>2020-04-18T11:09:09Z</time>
      </trkpt>
      <trkpt lat="46.07134" lon="6.33183">
        <ele>481.76</ele>
        <time>2020-04-18T11:09:10Z</time>
      </trkpt>
      <trkpt lat="46.07087" lon="6.33334">
        <ele>477.43</ele>
        <time>2020-04-18T11:09:16Z</time>
      </trkpt>
      <trkpt lat="46.07076" lon="6.33355">
        <ele>476.95</ele>
        <time>2020-04-18T11:09:17Z</time>
      </trkpt>
      <trkpt lat="46.07065" lon="6.33372">
        <ele>476.95</ele>
        <time>2020-04-18T11:09:18Z</time>
      </trkpt>
      <trkpt lat="46.07" lon="6.3347">
        <ele>475.51</ele>
        <time>2020-04-18T11:09:25Z</time>
      </trkpt>
      <trkpt lat="46.06971" lon="6.33514">
        <ele>474.55</ele>
        <time>2020-04-18T11:09:30Z</time>
      </trkpt>
      <trkpt lat="46.06963" lon="6.33519">
        <ele>474.07</ele>
        <time>2020-04-18T11:09:31Z</time>
      </trkpt>
      <trkpt lat="46.06957" lon="6.33516">
        <ele>473.59</ele>
        <time>2020-04-18T11:09:32Z</time>
      </trkpt>
      <trkpt lat="46.06951" lon="6.33514">
        <ele>473.11</ele>
        <time>2020-04-18T11:09:33Z</time>
      </trkpt>
      <trkpt lat="46.06943" lon="6.3351">
        <ele>473.11</ele>
        <time>2020-04-18T11:09:34Z</time>
      </trkpt>
      <trkpt lat="46.06939" lon="6.33502">
        <ele>473.11</ele>
        <time>2020-04-18T11:09:35Z</time>
      </trkpt>
      <trkpt lat="46.06934" lon="6.33493">
        <ele>473.11</ele>
        <time>2020-04-18T11:09:36Z</time>
      </trkpt>
      <trkpt lat="46.06927" lon="6.33489">
        <ele>472.63</ele>
        <time>2020-04-18T11:09:37Z</time>
      </trkpt>
      <trkpt lat="46.06917" lon="6.33484">
        <ele>472.63</ele>
        <time>2020-04-18T11:09:38Z</time>
      </trkpt>
      <trkpt lat="46.06906" lon="6.33484">
        <ele>472.63</ele>
        <time>2020-04-18T11:09:39Z</time>
      </trkpt>
      <trkpt lat="46.06893" lon="6.33483">
        <ele>472.63</ele>
        <time>2020-04-18T11:09:40Z</time>
      </trkpt>
      <trkpt lat="46.06881" lon="6.33482">
        <ele>473.11</ele>
        <time>2020-04-18T11:09:41Z</time>
      </trkpt>
      <trkpt lat="46.0683" lon="6.33486">
        <ele>473.11</ele>
        <time>2020-04-18T11:09:46Z</time>
      </trkpt>
      <trkpt lat="46.06821" lon="6.33486">
        <ele>473.11</ele>
        <time>2020-04-18T11:09:47Z</time>
      </trkpt>
      <trkpt lat="46.06821" lon="6.33486">
        <ele>473.59</ele>
        <time>2020-04-18T11:09:48Z</time>
      </trkpt>
      <trkpt lat="46.06805" lon="6.33492">
        <ele>473.59</ele>
        <time>2020-04-18T11:09:49Z</time>
      </trkpt>
      <trkpt lat="46.06797" lon="6.33488">
        <ele>473.59</ele>
        <time>2020-04-18T11:09:50Z</time>
      </trkpt>
      <trkpt lat="46.06787" lon="6.33483">
        <ele>473.11</ele>
        <time>2020-04-18T11:09:51Z</time>
      </trkpt>
      <trkpt lat="46.06778" lon="6.33476">
        <ele>473.11</ele>
        <time>2020-04-18T11:09:52Z</time>
      </trkpt>
      <trkpt lat="46.06768" lon="6.33468">
        <ele>473.59</ele>
        <time>2020-04-18T11:09:53Z</time>
      </trkpt>
      <trkpt lat="46.06758" lon="6.3346">
        <ele>474.07</ele>
        <time>2020-04-18T11:09:54Z</time>
      </trkpt>
      <trkpt lat="46.06729" lon="6.33435">
        <ele>475.99</ele>
        <time>2020-04-18T11:09:57Z</time>
      </trkpt>
      <trkpt lat="46.06719" lon="6.33429">
        <ele>477.43</ele>
        <time>2020-04-18T11:09:58Z</time>
      </trkpt>
      <trkpt lat="46.06667" lon="6.33406">
        <ele>481.76</ele>
        <time>2020-04-18T11:10:03Z</time>
      </trkpt>
      <trkpt lat="46.06658" lon="6.33402">
        <ele>482.72</ele>
        <time>2020-04-18T11:10:04Z</time>
      </trkpt>
      <trkpt lat="46.06651" lon="6.33391">
        <ele>483.68</ele>
        <time>2020-04-18T11:10:05Z</time>
      </trkpt>
      <trkpt lat="46.06649" lon="6.33379">
        <ele>484.16</ele>
        <time>2020-04-18T11:10:06Z</time>
      </trkpt>
      <trkpt lat="46.06646" lon="6.33367">
        <ele>485.6</ele>
        <time>2020-04-18T11:10:07Z</time>
      </trkpt>
      <trkpt lat="46.06641" lon="6.33354">
        <ele>486.56</ele>
        <time>2020-04-18T11:10:08Z</time>
      </trkpt>
      <trkpt lat="46.06634" lon="6.33342">
        <ele>487.53</ele>
        <time>2020-04-18T11:10:09Z</time>
      </trkpt>
      <trkpt lat="46.06626" lon="6.33332">
        <ele>488.49</ele>
        <time>2020-04-18T11:10:10Z</time>
      </trkpt>
      <trkpt lat="46.06616" lon="6.33321">
        <ele>489.45</ele>
        <time>2020-04-18T11:10:11Z</time>
      </trkpt>
      <trkpt lat="46.06604" lon="6.33313">
        <ele>490.41</ele>
        <time>2020-04-18T11:10:12Z</time>
      </trkpt>
      <trkpt lat="46.06591" lon="6.33305">
        <ele>490.89</ele>
        <time>2020-04-18T11:10:13Z</time>
      </trkpt>
      <trkpt lat="46.06569" lon="6.33291">
        <ele>492.33</ele>
        <time>2020-04-18T11:10:15Z</time>
      </trkpt>
      <trkpt lat="46.06559" lon="6.33285">
        <ele>493.29</ele>
        <time>2020-04-18T11:10:16Z</time>
      </trkpt>
      <trkpt lat="46.06556" lon="6.33275">
        <ele>493.29</ele>
        <time>2020-04-18T11:10:17Z</time>
      </trkpt>
      <trkpt lat="46.06553" lon="6.33261">
        <ele>493.29</ele>
        <time>2020-04-18T11:10:18Z</time>
      </trkpt>
      <trkpt lat="46.06556" lon="6.33249">
        <ele>493.29</ele>
        <time>2020-04-18T11:10:19Z</time>
      </trkpt>
      <trkpt lat="46.0656" lon="6.33235">
        <ele>493.29</ele>
        <time>2020-04-18T11:10:20Z</time>
      </trkpt>
      <trkpt lat="46.0656" lon="6.3322">
        <ele>492.81</ele>
        <time>2020-04-18T11:10:21Z</time>
      </trkpt>
      <trkpt lat="46.06559" lon="6.33204">
        <ele>492.33</ele>
        <time>2020-04-18T11:10:22Z</time>
      </trkpt>
      <trkpt lat="46.06554" lon="6.33188">
        <ele>491.85</ele>
        <time>2020-04-18T11:10:23Z</time>
      </trkpt>
      <trkpt lat="46.06546" lon="6.33171">
        <ele>491.37</ele>
        <time>2020-04-18T11:10:24Z</time>
      </trkpt>
      <trkpt lat="46.06538" lon="6.33153">
        <ele>490.89</ele>
        <time>2020-04-18T11:10:25Z</time>
      </trkpt>
      <trkpt lat="46.06527" lon="6.33135">
        <ele>489.93</ele>
        <time>2020-04-18T11:10:26Z</time>
      </trkpt>
      <trkpt lat="46.06473" lon="6.33038">
        <ele>485.6</ele>
        <time>2020-04-18T11:10:32Z</time>
      </trkpt>
      <trkpt lat="46.06466" lon="6.33023">
        <ele>484.64</ele>
        <time>2020-04-18T11:10:33Z</time>
      </trkpt>
      <trkpt lat="46.06459" lon="6.33008">
        <ele>483.68</ele>
        <time>2020-04-18T11:10:34Z</time>
      </trkpt>
      <trkpt lat="46.0645" lon="6.32995">
        <ele>483.68</ele>
        <time>2020-04-18T11:10:35Z</time>
      </trkpt>
      <trkpt lat="46.06438" lon="6.32989">
        <ele>484.16</ele>
        <time>2020-04-18T11:10:36Z</time>
      </trkpt>
      <trkpt lat="46.06427" lon="6.32983">
        <ele>484.64</ele>
        <time>2020-04-18T11:10:37Z</time>
      </trkpt>
      <trkpt lat="46.06414" lon="6.3298">
        <ele>485.12</ele>
        <time>2020-04-18T11:10:38Z</time>
      </trkpt>
      <trkpt lat="46.06401" lon="6.32981">
        <ele>485.6</ele>
        <time>2020-04-18T11:10:39Z</time>
      </trkpt>
      <trkpt lat="46.06388" lon="6.32982">
        <ele>486.08</ele>
        <time>2020-04-18T11:10:40Z</time>
      </trkpt>
      <trkpt lat="46.06375" lon="6.32983">
        <ele>487.05</ele>
        <time>2020-04-18T11:10:41Z</time>
      </trkpt>
      <trkpt lat="46.06363" lon="6.32984">
        <ele>488.01</ele>
        <time>2020-04-18T11:10:42Z</time>
      </trkpt>
      <trkpt lat="46.06354" lon="6.32983">
        <ele>488.01</ele>
        <time>2020-04-18T11:10:43Z</time>
      </trkpt>
      <trkpt lat="46.06346" lon="6.32979">
        <ele>488.97</ele>
        <time>2020-04-18T11:10:44Z</time>
      </trkpt>
      <trkpt lat="46.06341" lon="6.32977">
        <ele>489.93</ele>
        <time>2020-04-18T11:10:45Z</time>
      </trkpt>
      <trkpt lat="46.06336" lon="6.32975">
        <ele>491.37</ele>
        <time>2020-04-18T11:10:46Z</time>
      </trkpt>
      <trkpt lat="46.06333" lon="6.32974">
        <ele>492.33</ele>
        <time>2020-04-18T11:10:47Z</time>
      </trkpt>
      <trkpt lat="46.06329" lon="6.32963">
        <ele>494.26</ele>
        <time>2020-04-18T11:10:49Z</time>
      </trkpt>
      <trkpt lat="46.0633" lon="6.32926">
        <ele>496.18</ele>
        <time>2020-04-18T11:10:51Z</time>
      </trkpt>
      <trkpt lat="46.06328" lon="6.32906">
        <ele>497.14</ele>
        <time>2020-04-18T11:10:52Z</time>
      </trkpt>
      <trkpt lat="46.06326" lon="6.32885">
        <ele>498.58</ele>
        <time>2020-04-18T11:10:53Z</time>
      </trkpt>
      <trkpt lat="46.06325" lon="6.32862">
        <ele>500.02</ele>
        <time>2020-04-18T11:10:54Z</time>
      </trkpt>
      <trkpt lat="46.06326" lon="6.32838">
        <ele>501.46</ele>
        <time>2020-04-18T11:10:55Z</time>
      </trkpt>
      <trkpt lat="46.06327" lon="6.32793">
        <ele>504.83</ele>
        <time>2020-04-18T11:10:57Z</time>
      </trkpt>
      <trkpt lat="46.06325" lon="6.32768">
        <ele>505.79</ele>
        <time>2020-04-18T11:10:58Z</time>
      </trkpt>
      <trkpt lat="46.06288" lon="6.32599">
        <ele>515.88</ele>
        <time>2020-04-18T11:11:04Z</time>
      </trkpt>
      <trkpt lat="46.06266" lon="6.32481">
        <ele>527.9</ele>
        <time>2020-04-18T11:11:10Z</time>
      </trkpt>
      <trkpt lat="46.06261" lon="6.32394">
        <ele>537.99</ele>
        <time>2020-04-18T11:11:17Z</time>
      </trkpt>
      <trkpt lat="46.06266" lon="6.32241">
        <ele>538.96</ele>
        <time>2020-04-18T11:11:26Z</time>
      </trkpt>
      <trkpt lat="46.06249" lon="6.32082">
        <ele>538.48</ele>
        <time>2020-04-18T11:11:34Z</time>
      </trkpt>
      <trkpt lat="46.06202" lon="6.31961">
        <ele>539.92</ele>
        <time>2020-04-18T11:11:41Z</time>
      </trkpt>
      <trkpt lat="46.06164" lon="6.31884">
        <ele>543.76</ele>
        <time>2020-04-18T11:11:47Z</time>
      </trkpt>
      <trkpt lat="46.0614" lon="6.31841">
        <ele>547.61</ele>
        <time>2020-04-18T11:11:50Z</time>
      </trkpt>
      <trkpt lat="46.0613" lon="6.31831">
        <ele>549.05</ele>
        <time>2020-04-18T11:11:51Z</time>
      </trkpt>
      <trkpt lat="46.06121" lon="6.3182">
        <ele>550.49</ele>
        <time>2020-04-18T11:11:52Z</time>
      </trkpt>
      <trkpt lat="46.061" lon="6.31796">
        <ele>553.86</ele>
        <time>2020-04-18T11:11:55Z</time>
      </trkpt>
      <trkpt lat="46.06096" lon="6.31791">
        <ele>554.82</ele>
        <time>2020-04-18T11:11:56Z</time>
      </trkpt>
      <trkpt lat="46.06092" lon="6.31787">
        <ele>555.78</ele>
        <time>2020-04-18T11:11:57Z</time>
      </trkpt>
      <trkpt lat="46.06091" lon="6.31785">
        <ele>556.74</ele>
        <time>2020-04-18T11:11:58Z</time>
      </trkpt>
      <trkpt lat="46.06087" lon="6.31778">
        <ele>557.7</ele>
        <time>2020-04-18T11:11:59Z</time>
      </trkpt>
      <trkpt lat="46.06088" lon="6.31771">
        <ele>558.66</ele>
        <time>2020-04-18T11:12:00Z</time>
      </trkpt>
      <trkpt lat="46.06089" lon="6.31757">
        <ele>559.62</ele>
        <time>2020-04-18T11:12:01Z</time>
      </trkpt>
      <trkpt lat="46.06085" lon="6.31738">
        <ele>559.62</ele>
        <time>2020-04-18T11:12:02Z</time>
      </trkpt>
      <trkpt lat="46.06076" lon="6.31715">
        <ele>560.11</ele>
        <time>2020-04-18T11:12:03Z</time>
      </trkpt>
      <trkpt lat="46.06048" lon="6.31656">
        <ele>560.11</ele>
        <time>2020-04-18T11:12:06Z</time>
      </trkpt>
      <trkpt lat="46.06037" lon="6.31623">
        <ele>560.11</ele>
        <time>2020-04-18T11:12:08Z</time>
      </trkpt>
      <trkpt lat="46.06039" lon="6.31607">
        <ele>559.62</ele>
        <time>2020-04-18T11:12:09Z</time>
      </trkpt>
      <trkpt lat="46.06044" lon="6.31593">
        <ele>559.62</ele>
        <time>2020-04-18T11:12:10Z</time>
      </trkpt>
      <trkpt lat="46.06052" lon="6.3158">
        <ele>559.14</ele>
        <time>2020-04-18T11:12:11Z</time>
      </trkpt>
      <trkpt lat="46.0606" lon="6.31572">
        <ele>558.66</ele>
        <time>2020-04-18T11:12:12Z</time>
      </trkpt>
      <trkpt lat="46.06071" lon="6.31566">
        <ele>558.66</ele>
        <time>2020-04-18T11:12:13Z</time>
      </trkpt>
      <trkpt lat="46.06081" lon="6.31568">
        <ele>559.14</ele>
        <time>2020-04-18T11:12:14Z</time>
      </trkpt>
      <trkpt lat="46.06093" lon="6.31577">
        <ele>560.11</ele>
        <time>2020-04-18T11:12:15Z</time>
      </trkpt>
      <trkpt lat="46.06107" lon="6.31587">
        <ele>561.07</ele>
        <time>2020-04-18T11:12:16Z</time>
      </trkpt>
      <trkpt lat="46.0618" lon="6.31635">
        <ele>565.87</ele>
        <time>2020-04-18T11:12:22Z</time>
      </trkpt>
      <trkpt lat="46.0619" lon="6.31641">
        <ele>566.35</ele>
        <time>2020-04-18T11:12:23Z</time>
      </trkpt>
      <trkpt lat="46.062" lon="6.31638">
        <ele>566.83</ele>
        <time>2020-04-18T11:12:24Z</time>
      </trkpt>
      <trkpt lat="46.06212" lon="6.31635">
        <ele>566.83</ele>
        <time>2020-04-18T11:12:25Z</time>
      </trkpt>
      <trkpt lat="46.06224" lon="6.3163">
        <ele>566.35</ele>
        <time>2020-04-18T11:12:26Z</time>
      </trkpt>
      <trkpt lat="46.06259" lon="6.31611">
        <ele>565.87</ele>
        <time>2020-04-18T11:12:29Z</time>
      </trkpt>
      <trkpt lat="46.06269" lon="6.316">
        <ele>565.87</ele>
        <time>2020-04-18T11:12:30Z</time>
      </trkpt>
      <trkpt lat="46.06287" lon="6.31575">
        <ele>566.35</ele>
        <time>2020-04-18T11:12:32Z</time>
      </trkpt>
      <trkpt lat="46.06296" lon="6.31561">
        <ele>566.35</ele>
        <time>2020-04-18T11:12:33Z</time>
      </trkpt>
      <trkpt lat="46.06354" lon="6.31475">
        <ele>563.47</ele>
        <time>2020-04-18T11:12:41Z</time>
      </trkpt>
      <trkpt lat="46.06361" lon="6.31458">
        <ele>562.99</ele>
        <time>2020-04-18T11:12:43Z</time>
      </trkpt>
      <trkpt lat="46.06365" lon="6.31447">
        <ele>562.51</ele>
        <time>2020-04-18T11:12:44Z</time>
      </trkpt>
      <trkpt lat="46.06369" lon="6.31434">
        <ele>562.03</ele>
        <time>2020-04-18T11:12:45Z</time>
      </trkpt>
      <trkpt lat="46.06372" lon="6.31421">
        <ele>561.55</ele>
        <time>2020-04-18T11:12:46Z</time>
      </trkpt>
      <trkpt lat="46.06376" lon="6.31409">
        <ele>561.55</ele>
        <time>2020-04-18T11:12:47Z</time>
      </trkpt>
      <trkpt lat="46.06379" lon="6.31398">
        <ele>561.07</ele>
        <time>2020-04-18T11:12:48Z</time>
      </trkpt>
      <trkpt lat="46.06381" lon="6.31387">
        <ele>560.59</ele>
        <time>2020-04-18T11:12:49Z</time>
      </trkpt>
      <trkpt lat="46.06403" lon="6.31288">
        <ele>558.18</ele>
        <time>2020-04-18T11:12:55Z</time>
      </trkpt>
      <trkpt lat="46.06452" lon="6.3113">
        <ele>558.66</ele>
        <time>2020-04-18T11:13:05Z</time>
      </trkpt>
      <trkpt lat="46.06456" lon="6.31119">
        <ele>558.66</ele>
        <time>2020-04-18T11:13:06Z</time>
      </trkpt>
      <trkpt lat="46.06467" lon="6.31089">
        <ele>558.66</ele>
        <time>2020-04-18T11:13:09Z</time>
      </trkpt>
      <trkpt lat="46.06476" lon="6.31088">
        <ele>558.66</ele>
        <time>2020-04-18T11:13:11Z</time>
      </trkpt>
      <trkpt lat="46.06543" lon="6.31089">
        <ele>559.14</ele>
        <time>2020-04-18T11:13:16Z</time>
      </trkpt>
      <trkpt lat="46.06574" lon="6.31092">
        <ele>559.14</ele>
        <time>2020-04-18T11:13:19Z</time>
      </trkpt>
      <trkpt lat="46.06587" lon="6.31095">
        <ele>558.18</ele>
        <time>2020-04-18T11:13:21Z</time>
      </trkpt>
      <trkpt lat="46.06592" lon="6.31097">
        <ele>557.7</ele>
        <time>2020-04-18T11:13:22Z</time>
      </trkpt>
      <trkpt lat="46.06595" lon="6.31097">
        <ele>557.22</ele>
        <time>2020-04-18T11:13:23Z</time>
      </trkpt>
      <trkpt lat="46.06598" lon="6.31098">
        <ele>557.22</ele>
        <time>2020-04-18T11:13:24Z</time>
      </trkpt>
      <trkpt lat="46.06599" lon="6.31087">
        <ele>556.74</ele>
        <time>2020-04-18T11:13:25Z</time>
      </trkpt>
      <trkpt lat="46.06601" lon="6.31076">
        <ele>556.74</ele>
        <time>2020-04-18T11:13:26Z</time>
      </trkpt>
      <trkpt lat="46.06603" lon="6.31062">
        <ele>556.74</ele>
        <time>2020-04-18T11:13:27Z</time>
      </trkpt>
      <trkpt lat="46.06606" lon="6.31027">
        <ele>558.18</ele>
        <time>2020-04-18T11:13:29Z</time>
      </trkpt>
      <trkpt lat="46.0661" lon="6.31011">
        <ele>559.14</ele>
        <time>2020-04-18T11:13:30Z</time>
      </trkpt>
      <trkpt lat="46.06623" lon="6.30949">
        <ele>563.95</ele>
        <time>2020-04-18T11:13:35Z</time>
      </trkpt>
      <trkpt lat="46.06626" lon="6.30937">
        <ele>564.91</ele>
        <time>2020-04-18T11:13:36Z</time>
      </trkpt>
      <trkpt lat="46.06628" lon="6.30926">
        <ele>565.87</ele>
        <time>2020-04-18T11:13:37Z</time>
      </trkpt>
      <trkpt lat="46.06631" lon="6.30915">
        <ele>566.35</ele>
        <time>2020-04-18T11:13:38Z</time>
      </trkpt>
      <trkpt lat="46.06636" lon="6.30905">
        <ele>566.83</ele>
        <time>2020-04-18T11:13:39Z</time>
      </trkpt>
      <trkpt lat="46.06649" lon="6.30911">
        <ele>567.8</ele>
        <time>2020-04-18T11:13:40Z</time>
      </trkpt>
      <trkpt lat="46.06652" lon="6.30911">
        <ele>568.28</ele>
        <time>2020-04-18T11:13:41Z</time>
      </trkpt>
      <trkpt lat="46.06661" lon="6.30908">
        <ele>569.72</ele>
        <time>2020-04-18T11:13:42Z</time>
      </trkpt>
      <trkpt lat="46.06671" lon="6.30906">
        <ele>571.64</ele>
        <time>2020-04-18T11:13:43Z</time>
      </trkpt>
      <trkpt lat="46.06679" lon="6.30904">
        <ele>573.56</ele>
        <time>2020-04-18T11:13:44Z</time>
      </trkpt>
      <trkpt lat="46.06687" lon="6.30902">
        <ele>575.49</ele>
        <time>2020-04-18T11:13:45Z</time>
      </trkpt>
      <trkpt lat="46.06693" lon="6.30899">
        <ele>577.41</ele>
        <time>2020-04-18T11:13:46Z</time>
      </trkpt>
      <trkpt lat="46.067" lon="6.30889">
        <ele>579.33</ele>
        <time>2020-04-18T11:13:47Z</time>
      </trkpt>
      <trkpt lat="46.06746" lon="6.30817">
        <ele>580.77</ele>
        <time>2020-04-18T11:13:54Z</time>
      </trkpt>
      <trkpt lat="46.06748" lon="6.30814">
        <ele>580.77</ele>
        <time>2020-04-18T11:13:55Z</time>
      </trkpt>
      <trkpt lat="46.06748" lon="6.30814">
        <ele>580.77</ele>
        <time>2020-04-18T11:14:03Z</time>
      </trkpt>
      <trkpt lat="46.06748" lon="6.30814">
        <ele>580.77</ele>
        <time>2020-04-18T11:14:29Z</time>
      </trkpt>
    </trkseg>
  </trk>
</gpx>